createdAt,value
2023-05-06T00:03:06.520Z,30.181
2023-05-06T00:18:08.345Z,29.489
2023-05-06T00:33:10.213Z,29.799
2023-05-06T00:48:11.988Z,29.708
2023-05-06T01:03:13.843Z,28.629
2023-05-06T01:18:15.618Z,28.688
2023-05-06T01:33:17.374Z,28.344
2023-05-06T01:48:19.145Z,28.64
2023-05-06T02:03:21.084Z,28.091
2023-05-06T02:18:23.172Z,28.244
2023-05-06T02:33:24.864Z,27.988
2023-05-06T02:48:26.662Z,28.009
2023-05-06T03:03:28.417Z,28.209
2023-05-06T03:18:30.083Z,27.864
2023-05-06T03:33:31.794Z,27.76
2023-05-06T03:48:33.569Z,27.745
2023-05-06T04:03:35.365Z,27.903
2023-05-06T04:18:37.139Z,27.732
2023-05-06T04:33:38.857Z,27.815
2023-05-06T04:48:40.572Z,27.468
2023-05-06T05:03:42.355Z,27.601
2023-05-06T05:18:44.156Z,28.268
2023-05-06T05:33:45.944Z,27.606
2023-05-06T05:48:47.675Z,27.996
2023-05-06T06:03:49.669Z,27.914
2023-05-06T06:18:51.595Z,27.735
2023-05-06T06:33:53.367Z,27.579
2023-05-06T06:48:55.113Z,27.445
2023-05-06T07:03:56.942Z,27.49
2023-05-06T07:18:58.679Z,27.482
2023-05-06T07:34:00.403Z,27.347
2023-05-06T07:49:02.153Z,27.176
2023-05-06T08:04:04.019Z,27.563
2023-05-06T08:19:05.834Z,27.346
2023-05-06T08:34:07.582Z,27.421
2023-05-06T08:49:09.356Z,27.293
2023-05-06T09:04:11.061Z,27.518
2023-05-06T09:19:12.809Z,27.382
2023-05-06T09:34:14.514Z,27.251
2023-05-06T09:49:16.248Z,27.988
2023-05-06T10:04:18.204Z,27.779
2023-05-06T10:19:20.101Z,28.008
2023-05-06T10:34:21.818Z,27.455
2023-05-06T10:49:23.563Z,27.371
2023-05-06T11:04:25.348Z,27.34
2023-05-06T11:19:27.115Z,27.162
2023-05-06T11:34:28.833Z,28.189
2023-05-06T11:49:30.548Z,27.328
2023-05-06T12:04:32.311Z,27.874
2023-05-06T12:19:34.132Z,27.944
2023-05-06T12:34:35.869Z,27.011
2023-05-06T12:49:37.576Z,27.272
2023-05-06T13:04:39.301Z,27.465
2023-05-06T13:19:41.124Z,27.156
2023-05-06T13:34:42.838Z,27.048
2023-05-06T13:49:44.582Z,27.529
2023-05-06T14:04:46.374Z,27.322
2023-05-06T14:19:48.096Z,27.71
2023-05-06T14:34:49.831Z,26.967
2023-05-06T14:49:51.600Z,27.294
2023-05-06T15:04:53.330Z,26.773
2023-05-06T15:19:55.026Z,27.246
2023-05-06T15:34:56.809Z,27.506
2023-05-06T15:49:59.622Z,27.404
2023-05-06T16:05:01.549Z,27.675
2023-05-06T16:20:03.305Z,27.751
2023-05-06T16:35:05.086Z,27.483
2023-05-06T16:50:06.919Z,27.154
2023-05-06T17:05:08.729Z,28.059
2023-05-06T17:20:10.784Z,28.205
2023-05-06T17:35:13.052Z,27.974
2023-05-06T17:50:14.876Z,28.503
2023-05-06T18:05:16.670Z,28.753
2023-05-06T18:20:18.489Z,27.834
2023-05-06T18:35:20.269Z,27.811
2023-05-06T18:50:21.959Z,28.783
2023-05-06T19:05:23.640Z,29.08
2023-05-06T19:20:25.374Z,30.413
2023-05-06T19:35:27.137Z,29.265
2023-05-06T19:50:28.923Z,28.98
2023-05-06T20:05:30.660Z,29.111
2023-05-06T20:20:32.411Z,28.739
2023-05-06T20:35:34.157Z,28.425
2023-05-06T20:50:35.933Z,29.353
2023-05-06T21:05:37.691Z,29.9
2023-05-06T21:20:39.449Z,30.269
2023-05-06T21:35:41.203Z,30.134
2023-05-06T21:50:42.917Z,29.825
2023-05-06T22:05:44.605Z,30.497
2023-05-06T22:20:46.323Z,30.292
2023-05-06T22:35:48.052Z,30.135
2023-05-06T22:50:49.799Z,30.022
2023-05-06T23:05:51.727Z,30.206
2023-05-06T23:20:53.485Z,30.285
2023-05-06T23:35:55.231Z,30.054
2023-05-06T23:50:56.933Z,30.144
